createdAt,value
2023-04-14T00:00:06.848Z,100377.97
2023-04-14T00:02:40.505Z,100383.91
2023-04-14T00:05:09.695Z,100382.88
2023-04-14T00:07:37.674Z,100371.25
2023-04-14T00:10:07.870Z,100369.72
2023-04-14T00:12:38.540Z,100364.91
2023-04-14T00:15:07.848Z,100367.50
2023-04-14T00:17:38.428Z,100369.13
2023-04-14T00:20:08.344Z,100367.94
2023-04-14T00:22:36.528Z,100354.19
2023-04-14T00:25:06.573Z,100358.56
2023-04-14T00:27:34.615Z,100360.56
2023-04-14T00:30:03.544Z,100355.13
2023-04-14T00:32:33.762Z,100354.94
2023-04-14T00:35:03.714Z,100345.84
2023-04-14T00:37:31.792Z,100344.84
2023-04-14T00:40:01.408Z,100347.81
2023-04-14T00:42:31.950Z,100335.88
2023-04-14T00:45:00.675Z,100335.03
2023-04-14T00:47:28.977Z,100327.41
2023-04-14T00:49:57.288Z,100316.84
2023-04-14T00:52:25.541Z,100321.88
2023-04-14T00:54:53.549Z,100320.75
2023-04-14T00:57:21.622Z,100312.97
2023-04-14T00:59:50.944Z,100310.69
2023-04-14T01:02:19.011Z,100309.34
2023-04-14T01:04:54.382Z,100301.06
2023-04-14T01:07:23.275Z,100297.38
2023-04-14T01:09:51.276Z,100281.81
2023-04-14T01:12:27.911Z,100285.28
2023-04-14T01:15:06.381Z,100281.81
2023-04-14T01:17:38.725Z,100281.81
2023-04-14T01:20:10.864Z,100274.16
2023-04-14T01:22:40.522Z,100273.50
2023-04-14T01:25:19.207Z,100262.03
2023-04-14T01:27:54.282Z,100266.34
2023-04-14T01:30:44.676Z,100268.81
2023-04-14T01:33:18.398Z,100258.34
2023-04-14T01:35:47.112Z,100246.38
2023-04-14T01:38:18.763Z,100254.19
2023-04-14T01:40:51.038Z,100239.94
2023-04-14T01:43:19.123Z,100246.91
2023-04-14T01:45:51.471Z,100242.09
2023-04-14T01:48:21.080Z,100238.44
2023-04-14T01:50:49.046Z,100234.78
2023-04-14T01:53:18.036Z,100237.59
2023-04-14T01:55:47.414Z,100228.66
2023-04-14T01:58:15.806Z,100231.00
2023-04-14T02:00:43.949Z,100234.47
2023-04-14T02:03:12.102Z,100223.03
2023-04-14T02:05:43.395Z,100235.31
2023-04-14T02:08:13.793Z,100226.34
2023-04-14T02:10:45.627Z,100226.00
2023-04-14T02:13:15.317Z,100221.19
2023-04-14T02:15:43.429Z,100224.53
2023-04-14T02:18:12.031Z,100222.38
2023-04-14T02:20:44.955Z,100209.94
2023-04-14T02:23:12.967Z,100212.75
2023-04-14T02:25:42.847Z,100207.75
2023-04-14T02:28:15.682Z,100195.47
2023-04-14T02:30:43.825Z,100184.84
2023-04-14T02:33:16.114Z,100179.22
2023-04-14T02:35:47.759Z,100170.59
2023-04-14T02:38:19.895Z,100164.63
2023-04-14T02:40:47.952Z,100161.31
2023-04-14T02:43:18.851Z,100162.28
2023-04-14T02:45:49.023Z,100159.47
2023-04-14T02:48:17.498Z,100155.31
2023-04-14T02:50:50.423Z,100147.50
2023-04-14T02:53:24.107Z,100139.38
2023-04-14T02:56:04.653Z,100148.19
2023-04-14T02:58:38.016Z,100142.72
2023-04-14T03:01:06.489Z,100148.03
2023-04-14T03:03:38.466Z,100146.38
2023-04-14T03:06:12.189Z,100150.84
2023-04-14T03:08:41.254Z,100137.09
2023-04-14T03:11:09.459Z,100131.09
2023-04-14T03:13:37.983Z,100128.13
2023-04-14T03:16:08.354Z,100135.06
2023-04-14T03:18:37.007Z,100122.13
2023-04-14T03:21:05.147Z,100117.81
2023-04-14T03:23:35.059Z,100117.16
2023-04-14T03:26:07.039Z,100110.69
2023-04-14T03:28:37.638Z,100104.53
2023-04-14T03:31:06.523Z,100091.28
2023-04-14T03:33:41.988Z,100081.81
2023-04-14T03:36:12.983Z,100083.00
2023-04-14T03:38:42.680Z,100086.63
2023-04-14T03:41:10.772Z,100074.19
2023-04-14T03:43:40.289Z,100069.03
2023-04-14T03:46:12.182Z,100062.06
2023-04-14T03:48:42.795Z,100058.75
2023-04-14T03:51:14.330Z,100052.44
2023-04-14T03:53:44.847Z,100045.47
2023-04-14T03:56:14.401Z,100044.84
2023-04-14T03:58:42.408Z,100041.34
2023-04-14T04:01:10.630Z,100040.53
2023-04-14T04:03:41.516Z,100038.19
2023-04-14T04:06:09.637Z,100040.16
2023-04-14T04:08:37.519Z,100043.47
2023-04-14T04:11:07.786Z,100031.56
2023-04-14T04:13:36.728Z,100025.41
2023-04-14T04:16:05.253Z,100020.63
2023-04-14T04:18:33.941Z,100015.13
2023-04-14T04:21:02.290Z,100018.78
2023-04-14T04:23:31.557Z,100021.25
2023-04-14T04:25:59.580Z,100008.00
2023-04-14T04:28:36.514Z,100008.19
2023-04-14T04:31:32.849Z,100003.72
2023-04-14T04:34:03.099Z,100004.84
2023-04-14T04:36:32.925Z,99999.72
2023-04-14T04:39:01.285Z,99997.06
2023-04-14T04:41:37.842Z,99995.06
2023-04-14T04:44:07.398Z,99995.41
2023-04-14T04:47:05.476Z,99987.13
2023-04-14T04:49:34.959Z,99981.50
2023-04-14T04:52:04.928Z,99985.97
2023-04-14T04:54:32.964Z,99990.44
2023-04-14T04:57:00.953Z,99982.63
2023-04-14T04:59:30.271Z,99982.81
2023-04-14T05:01:58.321Z,99981.97
2023-04-14T05:04:26.560Z,99972.88
2023-04-14T05:06:54.592Z,99963.91
2023-04-14T05:09:23.865Z,99968.38
2023-04-14T05:11:53.458Z,99969.53
2023-04-14T05:14:21.606Z,99957.28
2023-04-14T05:16:51.173Z,99959.25
2023-04-14T05:19:19.173Z,99960.25
2023-04-14T05:21:48.424Z,99949.94
2023-04-14T05:24:16.478Z,99955.41
2023-04-14T05:26:57.591Z,99943.34
2023-04-14T05:29:35.743Z,99941.66
2023-04-14T05:32:04.998Z,99939.84
2023-04-14T05:34:32.924Z,99941.00
2023-04-14T05:37:01.209Z,99918.47
2023-04-14T05:39:29.108Z,99929.09
2023-04-14T05:41:57.110Z,99922.94
2023-04-14T05:44:25.455Z,99924.09
2023-04-14T05:46:53.561Z,99916.81
2023-04-14T05:49:22.878Z,99918.63
2023-04-14T05:51:50.976Z,99916.81
2023-04-14T05:54:18.945Z,99911.50
2023-04-14T05:56:47.149Z,99906.38
2023-04-14T05:59:16.274Z,99907.88
2023-04-14T06:01:44.289Z,99892.78
2023-04-14T06:04:12.517Z,99894.25
2023-04-14T06:06:42.392Z,99889.94
2023-04-14T06:09:10.460Z,99886.16
2023-04-14T06:11:41.790Z,99884.31
2023-04-14T06:14:10.327Z,99883.19
2023-04-14T06:16:38.325Z,99880.31
2023-04-14T06:19:06.429Z,99872.22
2023-04-14T06:21:34.396Z,99868.56
2023-04-14T06:24:04.807Z,99871.06
2023-04-14T06:26:33.111Z,99874.53
2023-04-14T06:29:01.793Z,99884.16
2023-04-14T06:31:29.958Z,99876.38
2023-04-14T06:33:57.925Z,99876.53
2023-04-14T06:36:25.926Z,99875.03
2023-04-14T06:38:54.325Z,99878.69
2023-04-14T06:41:23.777Z,99872.06
2023-04-14T06:43:54.346Z,99873.03
2023-04-14T06:46:23.530Z,99865.25
2023-04-14T06:48:51.790Z,99868.94
2023-04-14T06:51:19.703Z,99868.72
2023-04-14T06:53:47.856Z,99872.06
2023-04-14T06:56:16.031Z,99873.41
2023-04-14T06:58:45.625Z,99875.38
2023-04-14T07:01:16.929Z,99862.94
2023-04-14T07:03:45.036Z,99869.09
2023-04-14T07:06:17.048Z,99874.03
2023-04-14T07:08:46.554Z,99869.25
2023-04-14T07:11:15.311Z,99868.88
2023-04-14T07:13:43.210Z,99875.69
2023-04-14T07:16:12.980Z,99869.25
2023-04-14T07:18:41.423Z,99869.88
2023-04-14T07:21:11.224Z,99851.19
2023-04-14T07:23:40.083Z,99868.25
2023-04-14T07:26:09.225Z,99867.41
2023-04-14T07:28:37.218Z,99866.44
2023-04-14T07:31:08.940Z,99869.09
2023-04-14T07:33:38.792Z,99876.00
2023-04-14T07:36:08.100Z,99870.72
2023-04-14T07:38:36.536Z,99868.75
2023-04-14T07:41:05.354Z,99868.59
2023-04-14T07:43:35.709Z,99866.41
2023-04-14T07:46:07.617Z,99860.28
2023-04-14T07:48:36.721Z,99856.84
2023-04-14T07:51:06.316Z,99851.34
2023-04-14T07:53:34.571Z,99849.66
2023-04-14T07:56:02.568Z,99853.50
2023-04-14T07:58:31.018Z,99849.16
2023-04-14T08:00:59.018Z,99854.78
2023-04-14T08:03:30.067Z,99862.44
2023-04-14T08:05:59.874Z,99856.75
2023-04-14T08:08:29.757Z,99857.44
2023-04-14T08:10:58.556Z,99852.44
2023-04-14T08:13:26.538Z,99854.59
2023-04-14T08:15:54.779Z,99857.72
2023-04-14T08:18:23.904Z,99865.34
2023-04-14T08:20:52.062Z,99860.34
2023-04-14T08:23:21.749Z,99871.25
2023-04-14T08:25:52.648Z,99860.16
2023-04-14T08:28:21.429Z,99874.38
2023-04-14T08:30:51.594Z,99871.72
2023-04-14T08:33:19.874Z,99877.81
2023-04-14T08:35:56.219Z,99881.44
2023-04-14T08:38:28.577Z,99876.09
2023-04-14T08:40:58.155Z,99884.38
2023-04-14T08:43:28.542Z,99890.28
2023-04-14T08:45:56.874Z,99892.56
2023-04-14T08:48:27.536Z,99902.53
2023-04-14T08:50:59.549Z,99900.16
2023-04-14T08:53:27.963Z,99897.16
2023-04-14T08:55:58.583Z,99903.94
2023-04-14T08:58:26.763Z,99901.09
2023-04-14T09:00:54.959Z,99899.81
2023-04-14T09:03:23.226Z,99887.41
2023-04-14T09:05:51.328Z,99892.34
2023-04-14T09:08:19.382Z,99894.84
2023-04-14T09:10:47.784Z,99903.09
2023-04-14T09:13:17.279Z,99901.59
2023-04-14T09:15:47.574Z,99916.47
2023-04-14T09:18:15.651Z,99934.50
2023-04-14T09:20:44.356Z,99913.97
2023-04-14T09:23:13.431Z,99927.22
2023-04-14T09:25:43.080Z,99928.00
2023-04-14T09:28:12.203Z,99936.91
2023-04-14T09:30:45.509Z,99940.78
2023-04-14T09:35:54.720Z,99943.59
2023-04-14T09:38:33.051Z,99945.72
2023-04-14T09:41:01.339Z,99933.06
2023-04-14T09:43:30.496Z,99921.22
2023-04-14T09:46:07.912Z,99920.06
2023-04-14T09:48:37.469Z,99918.38
2023-04-14T09:51:07.144Z,99925.66
2023-04-14T09:53:36.008Z,99901.44
2023-04-14T09:56:05.931Z,99895.38
2023-04-14T09:58:35.426Z,99904.19
2023-04-14T10:01:05.848Z,99892.22
2023-04-14T10:03:36.716Z,99881.16
2023-04-14T10:06:07.759Z,99882.13
2023-04-14T10:08:41.050Z,99881.63
2023-04-14T10:11:17.997Z,99891.91
2023-04-14T10:13:46.788Z,99896.59
2023-04-14T10:16:17.375Z,99893.91
2023-04-14T10:18:47.574Z,99902.44
2023-04-14T10:21:17.534Z,99901.13
2023-04-14T10:23:47.347Z,99913.19
2023-04-14T10:26:17.200Z,99905.09
2023-04-14T10:28:46.228Z,99917.97
2023-04-14T10:31:18.490Z,99920.91
2023-04-14T10:33:46.685Z,99950.16
2023-04-14T10:36:24.609Z,99944.06
2023-04-14T10:39:05.531Z,99962.22
2023-04-14T10:41:47.341Z,99957.69
2023-04-14T10:44:38.156Z,99955.03
2023-04-14T10:47:09.629Z,99961.81
2023-04-14T10:49:38.931Z,99986.13
2023-04-14T10:52:09.858Z,100002.78
2023-04-14T10:54:53.728Z,100017.41
2023-04-14T10:57:24.110Z,100025.44
2023-04-14T10:59:56.041Z,100026.91
2023-04-14T11:02:29.946Z,100037.66
2023-04-14T11:05:04.448Z,100035.19
2023-04-14T11:07:33.469Z,100033.56
2023-04-14T11:10:05.337Z,100030.25
2023-04-14T11:12:33.905Z,100036.84
2023-04-14T11:15:06.433Z,100035.84
2023-04-14T11:17:40.758Z,100045.50
2023-04-14T11:20:15.501Z,100063.44
2023-04-14T11:22:45.951Z,100063.22
2023-04-14T11:25:16.081Z,100075.19
2023-04-14T11:27:44.509Z,100079.94
2023-04-14T11:30:16.010Z,100080.63
2023-04-14T11:32:49.087Z,100090.13
2023-04-14T11:35:19.013Z,100101.28
2023-04-14T11:37:47.453Z,100095.53
2023-04-14T11:40:16.689Z,100106.63
2023-04-14T11:42:49.036Z,100102.06
2023-04-14T11:45:19.230Z,100108.69
2023-04-14T11:48:01.981Z,100118.78
2023-04-14T11:50:32.577Z,100130.28
2023-04-14T11:53:01.003Z,100132.31
2023-04-14T11:55:28.990Z,100151.84
2023-04-14T11:57:58.227Z,100141.75
2023-04-14T12:00:26.620Z,100154.28
2023-04-14T12:02:56.763Z,100160.34
2023-04-14T12:05:31.318Z,100175.75
2023-04-14T12:08:00.857Z,100173.22
2023-04-14T12:10:32.661Z,100173.34
2023-04-14T12:13:03.065Z,100176.59
2023-04-14T12:15:32.363Z,100190.56
2023-04-14T12:18:02.052Z,100190.06
2023-04-14T12:20:32.016Z,100192.50
2023-04-14T12:23:04.545Z,100191.41
2023-04-14T12:25:35.029Z,100194.16
2023-04-14T12:28:07.207Z,100190.69
2023-04-14T12:30:42.348Z,100188.63
2023-04-14T12:33:12.113Z,100194.97
2023-04-14T12:35:44.496Z,100214.78
2023-04-14T12:38:13.790Z,100217.25
2023-04-14T12:40:42.633Z,100225.81
2023-04-14T12:43:11.069Z,100229.88
2023-04-14T12:45:43.777Z,100244.03
2023-04-14T12:48:13.453Z,100243.31
2023-04-14T12:50:43.628Z,100240.31
2023-04-14T12:53:25.064Z,100242.16
2023-04-14T12:56:07.141Z,100262.59
2023-04-14T12:58:36.168Z,100255.59
2023-04-14T13:01:05.199Z,100270.78
2023-04-14T13:03:53.264Z,100275.59
2023-04-14T13:06:23.189Z,100283.47
2023-04-14T13:08:52.226Z,100274.91
2023-04-14T13:11:22.415Z,100283.53
2023-04-14T13:13:53.860Z,100286.88
2023-04-14T13:16:22.358Z,100295.16
2023-04-14T13:18:51.525Z,100304.88
2023-04-14T13:21:19.596Z,100311.28
2023-04-14T13:23:49.003Z,100319.94
2023-04-14T13:26:22.470Z,100330.53
2023-04-14T13:28:52.049Z,100319.06
2023-04-14T13:31:20.617Z,100335.06
2023-04-14T13:33:48.600Z,100338.28
2023-04-14T13:36:18.592Z,100340.34
2023-04-14T13:38:48.392Z,100348.59
2023-04-14T13:41:19.467Z,100350.78
2023-04-14T13:43:51.648Z,100350.59
2023-04-14T13:46:20.722Z,100369.69
2023-04-14T13:48:48.795Z,100379.16
2023-04-14T13:51:16.949Z,100385.19
2023-04-14T13:53:45.365Z,100383.44
2023-04-14T13:56:14.769Z,100395.81
2023-04-14T13:58:42.933Z,100396.03
2023-04-14T14:01:12.187Z,100395.66
2023-04-14T14:03:41.553Z,100411.19
2023-04-14T14:06:09.877Z,100414.88
2023-04-14T14:08:38.017Z,100427.44
2023-04-14T14:11:06.814Z,100431.78
2023-04-14T14:13:37.109Z,100436.41
2023-04-14T14:16:06.872Z,100435.03
2023-04-14T14:18:35.059Z,100450.50
2023-04-14T14:21:03.024Z,100460.59
2023-04-14T14:23:31.428Z,100458.53
2023-04-14T14:25:59.437Z,100466.72
2023-04-14T14:28:27.755Z,100472.88
2023-04-14T14:30:57.378Z,100477.34
2023-04-14T14:33:25.888Z,100471.00
2023-04-14T14:35:54.650Z,100486.88
2023-04-14T14:38:22.676Z,100497.28
2023-04-14T14:40:52.167Z,100493.97
2023-04-14T14:43:20.594Z,100499.84
2023-04-14T14:45:48.780Z,100487.50
2023-04-14T14:48:18.454Z,100506.31
2023-04-14T14:50:46.526Z,100498.81
2023-04-14T14:53:15.006Z,100506.31
2023-04-14T14:55:43.244Z,100505.47
2023-04-14T14:58:12.064Z,100510.94
2023-04-14T15:00:40.110Z,100532.91
2023-04-14T15:03:10.322Z,100526.22
2023-04-14T15:05:40.125Z,100534.22
2023-04-14T15:08:08.679Z,100530.59
2023-04-14T15:10:37.162Z,100539.06
2023-04-14T15:13:06.101Z,100535.25
2023-04-14T15:15:35.493Z,100538.91
2023-04-14T15:18:03.839Z,100545.25
2023-04-14T15:20:32.045Z,100545.72
2023-04-14T15:23:03.733Z,100550.56
2023-04-14T15:25:31.801Z,100554.91
2023-04-14T15:27:59.759Z,100562.91
2023-04-14T15:30:28.573Z,100564.75
2023-04-14T15:32:57.429Z,100559.06
2023-04-14T15:35:26.303Z,100575.56
2023-04-14T15:37:54.572Z,100574.41
2023-04-14T15:40:24.207Z,100583.69
2023-04-14T15:42:52.229Z,100582.88
2023-04-14T15:45:21.565Z,100580.88
2023-04-14T15:47:50.121Z,100590.22
2023-04-14T15:50:19.130Z,100583.53
2023-04-14T15:52:47.620Z,100587.19
2023-04-14T15:55:17.937Z,100594.47
2023-04-14T15:57:48.825Z,100600.41
2023-04-14T16:00:17.687Z,100603.94
2023-04-14T16:02:46.452Z,100610.44
2023-04-14T16:05:15.004Z,100607.25
2023-04-14T16:07:43.876Z,100608.94
2023-04-14T16:10:12.295Z,100616.16
2023-04-14T16:12:40.798Z,100618.16
2023-04-14T16:15:11.227Z,100632.88
2023-04-14T16:17:39.365Z,100642.97
2023-04-14T16:20:08.211Z,100645.69
2023-04-14T16:22:37.094Z,100665.25
2023-04-14T16:25:05.825Z,100665.50
2023-04-14T16:27:33.935Z,100656.53
2023-04-14T16:30:02.032Z,100665.03
2023-04-14T16:32:31.699Z,100666.88
2023-04-14T16:34:59.827Z,100671.94
2023-04-14T16:37:27.879Z,100674.53
2023-04-14T16:39:56.012Z,100663.91
2023-04-14T16:42:25.110Z,100675.66
2023-04-14T16:44:53.173Z,100691.03
2023-04-14T16:47:21.366Z,100677.69
2023-04-14T16:49:51.739Z,100689.38
2023-04-14T16:52:19.928Z,100689.78
2023-04-14T16:54:47.965Z,100703.66
2023-04-14T16:57:16.589Z,100700.72
2023-04-14T16:59:46.962Z,100713.78
2023-04-14T17:02:15.152Z,100712.28
2023-04-14T17:04:45.690Z,100716.00
2023-04-14T17:07:17.135Z,100714.41
2023-04-14T17:09:47.150Z,100721.06
2023-04-14T17:12:15.586Z,100734.28
2023-04-14T17:14:45.327Z,100726.84
2023-04-14T17:17:13.867Z,100735.94
2023-04-14T17:19:41.892Z,100735.09
2023-04-14T17:22:11.430Z,100744.22
2023-04-14T17:24:42.863Z,100755.44
2023-04-14T17:27:11.516Z,100754.56
2023-04-14T17:29:41.106Z,100752.00
2023-04-14T17:32:11.714Z,100754.47
2023-04-14T17:34:42.471Z,100762.31
2023-04-14T17:37:10.457Z,100774.13
2023-04-14T17:39:38.949Z,100774.28
2023-04-14T17:42:08.814Z,100785.63
2023-04-14T17:44:38.230Z,100799.66
2023-04-14T17:47:15.171Z,100801.63
2023-04-14T17:49:43.860Z,100798.91
2023-04-14T17:52:19.720Z,100812.13
2023-04-14T17:54:52.732Z,100811.31
2023-04-14T17:57:22.982Z,100827.72
2023-04-14T17:59:53.396Z,100827.41
2023-04-14T18:02:22.476Z,100835.94
2023-04-14T18:04:50.578Z,100827.69
2023-04-14T18:07:18.708Z,100833.47
2023-04-14T18:09:47.646Z,100835.22
2023-04-14T18:12:15.724Z,100837.00
2023-04-14T18:14:45.176Z,100845.94
2023-04-14T18:17:13.692Z,100843.69
2023-04-14T18:19:41.619Z,100849.94
2023-04-14T18:22:11.275Z,100854.38
2023-04-14T18:29:47.233Z,100867.16
2023-04-14T18:32:15.511Z,100875.09
2023-04-14T18:34:44.034Z,100882.53
2023-04-14T18:37:12.258Z,100882.81
2023-04-14T18:39:40.412Z,100885.41
2023-04-14T18:42:08.307Z,100896.50
2023-04-14T18:44:37.687Z,100901.41
2023-04-14T18:47:07.096Z,100899.31
2023-04-14T18:49:37.440Z,100903.59
2023-04-14T18:52:06.168Z,100913.50
2023-04-14T18:54:34.701Z,100921.13
2023-04-14T18:57:04.143Z,100938.84
2023-04-14T18:59:33.996Z,100935.97
2023-04-14T19:02:04.497Z,100951.84
2023-04-14T19:04:35.874Z,100950.81
2023-04-14T19:07:06.628Z,100954.72
2023-04-14T19:09:36.181Z,100963.19
2023-04-14T19:12:06.833Z,100968.56
2023-04-14T19:14:38.355Z,100972.81
2023-04-14T19:17:06.392Z,100977.91
2023-04-14T19:19:36.493Z,100974.59
2023-04-14T19:22:04.670Z,100988.16
2023-04-14T19:24:32.650Z,100993.41
2023-04-14T19:27:00.907Z,100992.28
2023-04-14T19:29:29.066Z,100997.09
2023-04-14T19:31:58.524Z,101006.19
2023-04-14T19:34:27.165Z,101007.47
2023-04-14T19:36:57.488Z,101018.69
2023-04-14T19:39:25.667Z,101022.31
2023-04-14T19:41:53.524Z,101023.03
2023-04-14T19:44:23.729Z,101023.19
2023-04-14T19:46:51.725Z,101026.94
2023-04-14T19:49:28.612Z,101038.59
2023-04-14T19:51:58.162Z,101042.34
2023-04-14T19:54:26.531Z,101051.31
2023-04-14T19:56:56.493Z,101052.59
2023-04-14T19:59:54.588Z,101066.13
2023-04-14T20:02:23.393Z,101061.97
2023-04-14T20:04:57.110Z,101069.94
2023-04-14T20:07:26.490Z,101072.47
2023-04-14T20:09:55.980Z,101077.91
2023-04-14T20:12:24.373Z,101082.25
2023-04-14T20:14:52.672Z,101084.47
2023-04-14T20:17:22.088Z,101086.44
2023-04-14T20:19:51.473Z,101095.38
2023-04-14T20:22:19.781Z,101091.91
2023-04-14T20:24:55.180Z,101097.34
2023-04-14T20:27:25.050Z,101114.09
2023-04-14T20:29:54.909Z,101121.09
2023-04-14T20:32:23.856Z,101116.34
2023-04-14T20:34:57.263Z,101125.00
2023-04-14T20:37:25.437Z,101124.16
2023-04-14T20:39:55.449Z,101129.75
2023-04-14T20:42:23.675Z,101129.06
2023-04-14T20:44:52.256Z,101132.84
2023-04-14T20:47:22.352Z,101132.00
2023-04-14T20:49:50.722Z,101138.56
2023-04-14T20:52:23.441Z,101142.34
2023-04-14T20:54:51.852Z,101145.13
2023-04-14T20:57:21.268Z,101147.66
2023-04-14T20:59:49.835Z,101152.13
2023-04-14T21:02:18.413Z,101146.38
2023-04-14T21:04:47.820Z,101159.38
2023-04-14T21:07:16.462Z,101157.69
2023-04-14T21:09:44.691Z,101161.06
2023-04-14T21:12:15.738Z,101171.94
2023-04-14T21:15:31.079Z,101170.25
2023-04-14T21:17:37.482Z,101180.03
2023-04-14T21:20:09.090Z,101170.25
2023-04-14T21:22:38.111Z,101173.88
2023-04-14T21:25:07.359Z,101178.38
2023-04-14T21:27:38.094Z,101175.72
2023-04-14T21:30:13.830Z,101180.03
2023-04-14T21:32:42.475Z,101191.66
2023-04-14T21:35:12.235Z,101196.94
2023-04-14T21:37:41.458Z,101199.72
2023-04-14T21:40:13.281Z,101199.03
2023-04-14T21:42:42.541Z,101203.34
2023-04-14T21:45:12.299Z,101215.91
2023-04-14T21:47:41.020Z,101215.19
2023-04-14T21:50:12.441Z,101226.53
2023-04-14T21:52:41.484Z,101224.72
2023-04-14T21:55:10.416Z,101231.13
2023-04-14T21:57:44.190Z,101229.31
2023-04-14T22:00:21.278Z,101238.41
2023-04-14T22:02:52.407Z,101246.50
2023-04-14T22:05:21.186Z,101246.63
2023-04-14T22:07:49.134Z,101258.94
2023-04-14T22:10:18.715Z,101267.84
2023-04-14T22:12:47.175Z,101260.19
2023-04-14T22:15:16.875Z,101261.28
2023-04-14T22:17:46.473Z,101268.41
2023-04-14T22:20:20.272Z,101273.56
2023-04-14T22:22:49.154Z,101272.72
2023-04-14T22:25:17.645Z,101273.06
2023-04-14T22:27:47.350Z,101268.78
2023-04-14T22:30:15.928Z,101283.84
2023-04-14T22:32:47.446Z,101282.41
2023-04-14T22:35:16.520Z,101284.63
2023-04-14T22:37:45.454Z,101282.97
2023-04-14T22:40:13.871Z,101285.91
2023-04-14T22:42:42.230Z,101286.88
2023-04-14T22:45:12.565Z,101292.41
2023-04-14T22:47:40.711Z,101294.09
2023-04-14T22:50:13.040Z,101294.22
2023-04-14T22:52:43.290Z,101302.06
2023-04-14T22:55:11.795Z,101296.03
2023-04-14T22:57:41.385Z,101303.28
2023-04-14T23:00:12.288Z,101305.25
2023-04-14T23:02:42.318Z,101308.97
2023-04-14T23:05:14.495Z,101308.97
2023-04-14T23:07:42.807Z,101313.00
2023-04-14T23:10:11.934Z,101319.72
2023-04-14T23:12:41.347Z,101319.72
2023-04-14T23:15:10.398Z,101321.41
2023-04-14T23:17:38.437Z,101309.09
2023-04-14T23:20:10.346Z,101326.81
2023-04-14T23:22:40.656Z,101323.34
2023-04-14T23:25:09.394Z,101328.63
2023-04-14T23:27:38.241Z,101337.31
2023-04-14T23:30:10.247Z,101347.69
2023-04-14T23:32:39.916Z,101353.81
2023-04-14T23:35:09.347Z,101354.66
2023-04-14T23:37:39.240Z,101357.56
2023-04-14T23:40:09.228Z,101356.28
2023-04-14T23:42:37.513Z,101360.97
2023-04-14T23:45:09.235Z,101363.31
2023-04-14T23:47:37.669Z,101362.03
2023-04-14T23:50:08.807Z,101372.63
2023-04-14T23:52:37.247Z,101371.22
2023-04-14T23:55:08.114Z,101370.50
2023-04-14T23:57:36.064Z,101373.25
